sensor_id;sensor_type;location;lat;lon;timestamp;pressure;altitude;pressure_sealevel;temperature;humidity
47636;BME280;33364;50.766;15.338;2023-08-12T00:01:13;95734.91;;;13.38;82.77
47636;BME280;33364;50.766;15.338;2023-08-12T00:03:39;95743.84;;;13.47;82.87
47636;BME280;33364;50.766;15.338;2023-08-12T00:06:05;95735.44;;;13.40;82.59
47636;BME280;33364;50.766;15.338;2023-08-12T00:08:31;95744.47;;;13.39;82.72
47636;BME280;33364;50.766;15.338;2023-08-12T00:10:57;95737.56;;;13.38;83.02
47636;BME280;33364;50.766;15.338;2023-08-12T00:13:23;95747.69;;;13.36;83.13
47636;BME280;33364;50.766;15.338;2023-08-12T00:15:49;95744.34;;;13.49;82.88
47636;BME280;33364;50.766;15.338;2023-08-12T00:18:15;95738.91;;;13.60;82.56
47636;BME280;33364;50.766;15.338;2023-08-12T00:20:41;95742.69;;;13.53;82.19
47636;BME280;33364;50.766;15.338;2023-08-12T00:23:08;95728.09;;;13.56;82.30
47636;BME280;33364;50.766;15.338;2023-08-12T00:25:34;95736.50;;;13.63;82.15
47636;BME280;33364;50.766;15.338;2023-08-12T00:28:00;95745.47;;;13.67;82.57
47636;BME280;33364;50.766;15.338;2023-08-12T00:30:26;95735.06;;;13.71;81.84
47636;BME280;33364;50.766;15.338;2023-08-12T00:32:52;95734.38;;;13.60;81.91
47636;BME280;33364;50.766;15.338;2023-08-12T00:35:17;95725.28;;;13.47;82.49
47636;BME280;33364;50.766;15.338;2023-08-12T00:37:43;95720.84;;;13.19;83.65
47636;BME280;33364;50.766;15.338;2023-08-12T00:40:09;95720.78;;;13.24;83.63
47636;BME280;33364;50.766;15.338;2023-08-12T00:42:36;95726.13;;;13.19;83.62
47636;BME280;33364;50.766;15.338;2023-08-12T00:45:01;95725.13;;;13.15;84.26
47636;BME280;33364;50.766;15.338;2023-08-12T00:47:29;95721.63;;;13.20;83.54
47636;BME280;33364;50.766;15.338;2023-08-12T00:49:56;95714.81;;;13.08;84.31
47636;BME280;33364;50.766;15.338;2023-08-12T00:52:23;95712.44;;;13.07;84.41
47636;BME280;33364;50.766;15.338;2023-08-12T00:54:49;95719.38;;;13.03;84.84
47636;BME280;33364;50.766;15.338;2023-08-12T00:57:15;95716.13;;;13.11;84.80
47636;BME280;33364;50.766;15.338;2023-08-12T00:59:41;95716.13;;;13.11;84.51
47636;BME280;33364;50.766;15.338;2023-08-12T01:02:11;95715.63;;;13.09;84.65
47636;BME280;33364;50.766;15.338;2023-08-12T01:04:37;95715.63;;;13.09;84.44
47636;BME280;33364;50.766;15.338;2023-08-12T01:07:03;95709.75;;;13.12;84.17
47636;BME280;33364;50.766;15.338;2023-08-12T01:09:29;95710.31;;;13.09;84.48
47636;BME280;33364;50.766;15.338;2023-08-12T01:12:06;95713.50;;;13.06;84.50
47636;BME280;33364;50.766;15.338;2023-08-12T01:14:38;95709.00;;;13.06;84.08
47636;BME280;33364;50.766;15.338;2023-08-12T01:17:07;95717.66;;;13.17;84.07
47636;BME280;33364;50.766;15.338;2023-08-12T01:19:37;95712.88;;;13.19;84.16
47636;BME280;33364;50.766;15.338;2023-08-12T01:22:05;95709.75;;;13.12;83.98
47636;BME280;33364;50.766;15.338;2023-08-12T01:24:44;95718.75;;;13.16;83.64
47636;BME280;33364;50.766;15.338;2023-08-12T01:27:12;95722.47;;;13.15;84.27
47636;BME280;33364;50.766;15.338;2023-08-12T01:29:44;95714.53;;;13.10;84.07
47636;BME280;33364;50.766;15.338;2023-08-12T01:32:23;95715.19;;;12.97;84.14
47636;BME280;33364;50.766;15.338;2023-08-12T01:35:01;95708.47;;;12.81;85.08
47636;BME280;33364;50.766;15.338;2023-08-12T01:37:29;95712.25;;;12.75;85.33
47636;BME280;33364;50.766;15.338;2023-08-12T01:39:59;95714.41;;;12.73;85.37
47636;BME280;33364;50.766;15.338;2023-08-12T01:42:26;95721.28;;;12.74;85.17
47636;BME280;33364;50.766;15.338;2023-08-12T01:44:53;95719.91;;;12.76;85.24
47636;BME280;33364;50.766;15.338;2023-08-12T01:47:19;95714.94;;;12.69;85.55
47636;BME280;33364;50.766;15.338;2023-08-12T01:49:45;95711.53;;;12.64;85.56
47636;BME280;33364;50.766;15.338;2023-08-12T01:52:11;95713.44;;;12.63;85.82
47636;BME280;33364;50.766;15.338;2023-08-12T01:54:37;95713.69;;;12.62;85.52
47636;BME280;33364;50.766;15.338;2023-08-12T01:57:06;95715.19;;;12.73;85.19
47636;BME280;33364;50.766;15.338;2023-08-12T01:59:32;95713.03;;;12.75;85.37
47636;BME280;33364;50.766;15.338;2023-08-12T02:01:58;95712.72;;;12.82;85.08
47636;BME280;33364;50.766;15.338;2023-08-12T02:04:25;95710.38;;;12.75;85.34
47636;BME280;33364;50.766;15.338;2023-08-12T02:06:52;95706.50;;;12.67;85.37
47636;BME280;33364;50.766;15.338;2023-08-12T02:09:17;95707.56;;;12.66;85.46
47636;BME280;33364;50.766;15.338;2023-08-12T02:11:43;95700.94;;;12.64;85.41
47636;BME280;33364;50.766;15.338;2023-08-12T02:14:09;95702.09;;;12.58;85.66
47636;BME280;33364;50.766;15.338;2023-08-12T02:16:35;95699.94;;;12.60;85.71
47636;BME280;33364;50.766;15.338;2023-08-12T02:19:00;95690.59;;;12.67;85.54
47636;BME280;33364;50.766;15.338;2023-08-12T02:21:26;95697.13;;;12.75;84.97
47636;BME280;33364;50.766;15.338;2023-08-12T02:23:52;95693.63;;;12.80;84.72
47636;BME280;33364;50.766;15.338;2023-08-12T02:26:18;95690.16;;;12.84;84.37
47636;BME280;33364;50.766;15.338;2023-08-12T02:28:44;95697.75;;;12.91;84.66
47636;BME280;33364;50.766;15.338;2023-08-12T02:31:10;95690.34;;;12.93;83.86
47636;BME280;33364;50.766;15.338;2023-08-12T02:33:35;95690.91;;;12.90;83.92
47636;BME280;33364;50.766;15.338;2023-08-12T02:36:01;95691.97;;;12.89;83.92
47636;BME280;33364;50.766;15.338;2023-08-12T02:38:27;95689.94;;;12.81;84.08
47636;BME280;33364;50.766;15.338;2023-08-12T02:40:53;95692.53;;;12.86;84.32
47636;BME280;33364;50.766;15.338;2023-08-12T02:43:18;95691.56;;;12.77;84.27
47636;BME280;33364;50.766;15.338;2023-08-12T02:45:44;95680.00;;;12.67;84.44
47636;BME280;33364;50.766;15.338;2023-08-12T02:48:10;95675.94;;;12.75;84.43
47636;BME280;33364;50.766;15.338;2023-08-12T02:50:38;95686.00;;;12.78;84.40
47636;BME280;33364;50.766;15.338;2023-08-12T02:53:05;95680.44;;;12.75;84.51
47636;BME280;33364;50.766;15.338;2023-08-12T02:55:31;95675.19;;;12.69;84.71
47636;BME280;33364;50.766;15.338;2023-08-12T02:57:58;95674.66;;;12.73;84.17
47636;BME280;33364;50.766;15.338;2023-08-12T03:00:24;95674.91;;;12.71;84.88
47636;BME280;33364;50.766;15.338;2023-08-12T03:02:50;95680.16;;;12.76;84.61
47636;BME280;33364;50.766;15.338;2023-08-12T03:05:25;95676.28;;;12.68;84.57
47636;BME280;33364;50.766;15.338;2023-08-12T03:08:03;95676.28;;;12.68;84.95
47636;BME280;33364;50.766;15.338;2023-08-12T03:10:30;95680.44;;;12.75;84.59
47636;BME280;33364;50.766;15.338;2023-08-12T03:12:56;95676.28;;;12.68;84.59
47636;BME280;33364;50.766;15.338;2023-08-12T03:15:23;95675.81;;;12.61;84.76
47636;BME280;33364;50.766;15.338;2023-08-12T03:17:48;95682.81;;;12.76;84.80
47636;BME280;33364;50.766;15.338;2023-08-12T03:20:14;95687.78;;;12.83;84.26
47636;BME280;33364;50.766;15.338;2023-08-12T03:22:40;95681.38;;;12.89;84.03
47636;BME280;33364;50.766;15.338;2023-08-12T03:25:06;95680.84;;;12.87;84.12
47636;BME280;33364;50.766;15.338;2023-08-12T03:27:32;95681.31;;;12.94;84.12
47636;BME280;33364;50.766;15.338;2023-08-12T03:29:58;95673.78;;;13.01;83.58
47636;BME280;33364;50.766;15.338;2023-08-12T03:32:24;95670.66;;;12.99;83.60
47636;BME280;33364;50.766;15.338;2023-08-12T03:34:51;95679.72;;;12.93;84.16
47636;BME280;33364;50.766;15.338;2023-08-12T03:37:18;95677.13;;;12.88;84.28
47636;BME280;33364;50.766;15.338;2023-08-12T03:39:44;95674.94;;;12.95;84.24
47636;BME280;33364;50.766;15.338;2023-08-12T03:42:10;95675.44;;;12.97;84.18
47636;BME280;33364;50.766;15.338;2023-08-12T03:44:36;95667.47;;;12.97;84.53
47636;BME280;33364;50.766;15.338;2023-08-12T03:47:01;95674.59;;;13.01;84.20
47636;BME280;33364;50.766;15.338;2023-08-12T03:49:28;95669.06;;;12.98;84.18
47636;BME280;33364;50.766;15.338;2023-08-12T03:51:53;95669.00;;;13.03;84.05
47636;BME280;33364;50.766;15.338;2023-08-12T03:54:22;95674.31;;;13.03;83.92
47636;BME280;33364;50.766;15.338;2023-08-12T03:56:48;95672.66;;;13.07;84.00
47636;BME280;33364;50.766;15.338;2023-08-12T03:59:14;95667.06;;;13.14;83.80
47636;BME280;33364;50.766;15.338;2023-08-12T04:01:40;95661.97;;;13.17;83.51
47636;BME280;33364;50.766;15.338;2023-08-12T04:04:06;95664.13;;;13.15;83.77
47636;BME280;33364;50.766;15.338;2023-08-12T04:06:31;95670.72;;;13.18;83.62
47636;BME280;33364;50.766;15.338;2023-08-12T04:08:58;95664.94;;;13.16;83.61
47636;BME280;33364;50.766;15.338;2023-08-12T04:11:23;95660.84;;;13.23;83.47
47636;BME280;33364;50.766;15.338;2023-08-12T04:13:49;95655.78;;;13.27;83.19
47636;BME280;33364;50.766;15.338;2023-08-12T04:16:15;95658.19;;;13.23;84.04
47636;BME280;33364;50.766;15.338;2023-08-12T04:18:44;95659.50;;;13.26;83.94
47636;BME280;33364;50.766;15.338;2023-08-12T04:21:10;95657.25;;;13.33;83.57
47636;BME280;33364;50.766;15.338;2023-08-12T04:23:36;95648.16;;;13.39;83.34
47636;BME280;33364;50.766;15.338;2023-08-12T04:26:02;95650.25;;;13.42;83.14
47636;BME280;33364;50.766;15.338;2023-08-12T04:28:28;95641.38;;;13.51;82.80
47636;BME280;33364;50.766;15.338;2023-08-12T04:30:54;95638.66;;;13.57;82.79
47636;BME280;33364;50.766;15.338;2023-08-12T04:33:20;95638.84;;;13.60;82.68
47636;BME280;33364;50.766;15.338;2023-08-12T04:35:45;95637.59;;;13.58;82.92
47636;BME280;33364;50.766;15.338;2023-08-12T04:38:12;95642.88;;;13.58;82.97
47636;BME280;33364;50.766;15.338;2023-08-12T04:40:41;95647.97;;;13.54;83.76
47636;BME280;33364;50.766;15.338;2023-08-12T04:43:10;95650.41;;;13.50;83.41
47636;BME280;33364;50.766;15.338;2023-08-12T04:45:37;95648.25;;;13.52;83.79
47636;BME280;33364;50.766;15.338;2023-08-12T04:48:04;95649.25;;;13.57;83.31
47636;BME280;33364;50.766;15.338;2023-08-12T04:50:31;95649.91;;;13.67;82.97
47636;BME280;33364;50.766;15.338;2023-08-12T04:52:57;95650.69;;;13.68;83.19
47636;BME280;33364;50.766;15.338;2023-08-12T04:55:25;95646.38;;;13.72;83.20
47636;BME280;33364;50.766;15.338;2023-08-12T04:57:51;95649.16;;;13.80;82.50
47636;BME280;33364;50.766;15.338;2023-08-12T05:00:17;95642.22;;;13.84;82.40
47636;BME280;33364;50.766;15.338;2023-08-12T05:02:43;95648.25;;;13.90;82.43
47636;BME280;33364;50.766;15.338;2023-08-12T05:05:09;95642.72;;;13.86;82.45
47636;BME280;33364;50.766;15.338;2023-08-12T05:07:35;95643.34;;;13.97;82.28
47636;BME280;33364;50.766;15.338;2023-08-12T05:10:01;95636.09;;;14.03;82.45
47636;BME280;33364;50.766;15.338;2023-08-12T05:12:28;95642.97;;;14.04;82.37
47636;BME280;33364;50.766;15.338;2023-08-12T05:14:53;95640.41;;;13.99;83.02
47636;BME280;33364;50.766;15.338;2023-08-12T05:17:19;95638.56;;;13.99;82.56
47636;BME280;33364;50.766;15.338;2023-08-12T05:19:45;95641.19;;;13.99;82.84
47636;BME280;33364;50.766;15.338;2023-08-12T05:22:11;95643.19;;;14.07;83.10
47636;BME280;33364;50.766;15.338;2023-08-12T05:24:37;95639.88;;;14.15;82.52
47636;BME280;33364;50.766;15.338;2023-08-12T05:27:03;95636.53;;;14.23;82.50
47636;BME280;33364;50.766;15.338;2023-08-12T05:29:30;95635.03;;;14.36;83.17
47636;BME280;33364;50.766;15.338;2023-08-12T05:31:56;95629.56;;;14.46;82.94
47636;BME280;33364;50.766;15.338;2023-08-12T05:34:22;95623.44;;;14.59;82.88
47636;BME280;33364;50.766;15.338;2023-08-12T05:36:48;95624.56;;;14.72;82.68
47636;BME280;33364;50.766;15.338;2023-08-12T05:39:13;95615.03;;;14.85;82.28
47636;BME280;33364;50.766;15.338;2023-08-12T05:41:41;95621.22;;;14.94;82.19
47636;BME280;33364;50.766;15.338;2023-08-12T05:44:07;95618.63;;;15.02;80.59
47636;BME280;33364;50.766;15.338;2023-08-12T05:46:33;95615.88;;;15.07;81.50
47636;BME280;33364;50.766;15.338;2023-08-12T05:48:58;95620.69;;;15.19;81.33
47636;BME280;33364;50.766;15.338;2023-08-12T05:51:24;95620.19;;;15.31;80.57
47636;BME280;33364;50.766;15.338;2023-08-12T05:53:51;95622.84;;;15.31;81.93
47636;BME280;33364;50.766;15.338;2023-08-12T05:56:17;95623.44;;;15.41;81.85
47636;BME280;33364;50.766;15.338;2023-08-12T05:58:43;95627.97;;;15.41;83.41
47636;BME280;33364;50.766;15.338;2023-08-12T06:01:09;95632.00;;;15.52;83.22
47636;BME280;33364;50.766;15.338;2023-08-12T06:03:35;95629.53;;;15.55;82.75
47636;BME280;33364;50.766;15.338;2023-08-12T06:06:02;95625.19;;;15.59;82.81
47636;BME280;33364;50.766;15.338;2023-08-12T06:08:28;95623.19;;;15.65;83.29
47636;BME280;33364;50.766;15.338;2023-08-12T06:10:54;95621.41;;;15.74;83.15
47636;BME280;33364;50.766;15.338;2023-08-12T06:13:20;95617.41;;;15.85;82.85
47636;BME280;33364;50.766;15.338;2023-08-12T06:15:46;95614.84;;;16.02;83.21
47636;BME280;33364;50.766;15.338;2023-08-12T06:18:11;95612.16;;;16.16;82.84
47636;BME280;33364;50.766;15.338;2023-08-12T06:20:37;95617.06;;;16.23;83.71
47636;BME280;33364;50.766;15.338;2023-08-12T06:23:03;95617.25;;;16.35;83.57
47636;BME280;33364;50.766;15.338;2023-08-12T06:25:29;95611.72;;;16.54;82.88
47636;BME280;33364;50.766;15.338;2023-08-12T06:27:55;95606.22;;;16.81;83.70
47636;BME280;33364;50.766;15.338;2023-08-12T06:30:21;95610.75;;;17.28;82.76
47636;BME280;33364;50.766;15.338;2023-08-12T06:32:46;95609.06;;;17.58;80.12
47636;BME280;33364;50.766;15.338;2023-08-12T06:35:12;95601.69;;;17.98;79.87
47636;BME280;33364;50.766;15.338;2023-08-12T06:37:38;95597.13;;;18.16;77.17
47636;BME280;33364;50.766;15.338;2023-08-12T06:40:05;95592.53;;;18.25;76.96
47636;BME280;33364;50.766;15.338;2023-08-12T06:42:30;95596.31;;;18.33;77.08
47636;BME280;33364;50.766;15.338;2023-08-12T06:44:58;95597.38;;;18.40;78.19
47636;BME280;33364;50.766;15.338;2023-08-12T06:47:24;95590.00;;;18.37;78.43
47636;BME280;33364;50.766;15.338;2023-08-12T06:49:51;95589.34;;;18.40;78.88
47636;BME280;33364;50.766;15.338;2023-08-12T06:52:17;95597.19;;;18.45;78.48
47636;BME280;33364;50.766;15.338;2023-08-12T06:54:43;95585.25;;;18.60;78.94
47636;BME280;33364;50.766;15.338;2023-08-12T06:57:09;95585.59;;;18.88;79.07
47636;BME280;33364;50.766;15.338;2023-08-12T06:59:38;95584.03;;;19.16;77.12
47636;BME280;33364;50.766;15.338;2023-08-12T07:02:04;95584.53;;;19.39;77.11
47636;BME280;33364;50.766;15.338;2023-08-12T07:04:30;95582.31;;;19.62;76.23
47636;BME280;33364;50.766;15.338;2023-08-12T07:06:55;95583.09;;;19.83;74.09
47636;BME280;33364;50.766;15.338;2023-08-12T07:09:21;95582.50;;;19.98;72.02
47636;BME280;33364;50.766;15.338;2023-08-12T07:11:47;95580.53;;;20.07;70.58
47636;BME280;33364;50.766;15.338;2023-08-12T07:14:13;95578.34;;;20.21;69.86
47636;BME280;33364;50.766;15.338;2023-08-12T07:16:38;95575.28;;;20.44;69.30
47636;BME280;33364;50.766;15.338;2023-08-12T07:19:04;95578.91;;;20.60;66.84
47636;BME280;33364;50.766;15.338;2023-08-12T07:21:30;95585.16;;;20.64;65.95
47636;BME280;33364;50.766;15.338;2023-08-12T07:23:56;95583.28;;;20.77;64.54
47636;BME280;33364;50.766;15.338;2023-08-12T07:26:22;95601.06;;;20.69;63.79
47636;BME280;33364;50.766;15.338;2023-08-12T07:28:48;95583.50;;;20.96;62.84
47636;BME280;33364;50.766;15.338;2023-08-12T07:31:13;95589.56;;;20.93;61.82
47636;BME280;33364;50.766;15.338;2023-08-12T07:33:39;95590.13;;;21.23;61.78
47636;BME280;33364;50.766;15.338;2023-08-12T07:36:05;95590.38;;;21.30;62.24
47636;BME280;33364;50.766;15.338;2023-08-12T07:38:31;95581.22;;;21.59;61.65
47636;BME280;33364;50.766;15.338;2023-08-12T07:40:57;95593.88;;;21.58;60.57
47636;BME280;33364;50.766;15.338;2023-08-12T07:43:23;95593.88;;;21.70;62.06
47636;BME280;33364;50.766;15.338;2023-08-12T07:45:52;95588.25;;;21.75;60.35
47636;BME280;33364;50.766;15.338;2023-08-12T07:48:20;95588.84;;;22.09;60.08
47636;BME280;33364;50.766;15.338;2023-08-12T07:50:46;95592.22;;;22.49;58.61
47636;BME280;33364;50.766;15.338;2023-08-12T07:53:15;95581.97;;;22.70;58.23
47636;BME280;33364;50.766;15.338;2023-08-12T07:55:42;95579.13;;;22.79;58.44
47636;BME280;33364;50.766;15.338;2023-08-12T07:58:08;95568.13;;;23.00;58.88
47636;BME280;33364;50.766;15.338;2023-08-12T08:00:34;95574.50;;;23.11;56.82
47636;BME280;33364;50.766;15.338;2023-08-12T08:03:00;95567.72;;;23.17;55.52
47636;BME280;33364;50.766;15.338;2023-08-12T08:05:25;95575.09;;;23.36;57.14
47636;BME280;33364;50.766;15.338;2023-08-12T08:07:51;95577.34;;;23.49;56.46
47636;BME280;33364;50.766;15.338;2023-08-12T08:10:17;95573.31;;;23.59;56.11
47636;BME280;33364;50.766;15.338;2023-08-12T08:12:43;95566.38;;;23.58;54.10
47636;BME280;33364;50.766;15.338;2023-08-12T08:15:09;95565.16;;;23.75;53.76
47636;BME280;33364;50.766;15.338;2023-08-12T08:17:36;95574.47;;;23.77;53.13
47636;BME280;33364;50.766;15.338;2023-08-12T08:20:03;95574.31;;;23.35;55.83
47636;BME280;33364;50.766;15.338;2023-08-12T08:22:31;95564.06;;;23.95;54.46
47636;BME280;33364;50.766;15.338;2023-08-12T08:24:57;95564.59;;;24.23;53.27
47636;BME280;33364;50.766;15.338;2023-08-12T08:27:26;95553.59;;;24.55;52.59
47636;BME280;33364;50.766;15.338;2023-08-12T08:29:51;95552.47;;;24.78;52.25
47636;BME280;33364;50.766;15.338;2023-08-12T08:32:17;95557.16;;;25.04;54.91
47636;BME280;33364;50.766;15.338;2023-08-12T08:34:43;95557.34;;;24.92;50.49
47636;BME280;33364;50.766;15.338;2023-08-12T08:37:09;95554.69;;;24.73;51.11
47636;BME280;33364;50.766;15.338;2023-08-12T08:39:35;95555.13;;;24.98;51.92
47636;BME280;33364;50.766;15.338;2023-08-12T08:42:02;95558.97;;;24.97;50.29
47636;BME280;33364;50.766;15.338;2023-08-12T08:44:31;95558.63;;;25.24;52.17
47636;BME280;33364;50.766;15.338;2023-08-12T08:46:59;95556.72;;;25.55;48.55
47636;BME280;33364;50.766;15.338;2023-08-12T08:49:25;95556.72;;;25.55;48.34
47636;BME280;33364;50.766;15.338;2023-08-12T08:51:52;95560.69;;;25.91;50.83
47636;BME280;33364;50.766;15.338;2023-08-12T08:54:18;95562.44;;;26.06;49.43
47636;BME280;33364;50.766;15.338;2023-08-12T08:56:45;95563.44;;;25.94;49.53
47636;BME280;33364;50.766;15.338;2023-08-12T08:59:11;95560.19;;;25.82;49.18
47636;BME280;33364;50.766;15.338;2023-08-12T09:01:37;95560.28;;;25.59;47.47
47636;BME280;33364;50.766;15.338;2023-08-12T09:04:03;95558.72;;;25.58;49.24
47636;BME280;33364;50.766;15.338;2023-08-12T09:06:31;95570.16;;;25.74;48.94
47636;BME280;33364;50.766;15.338;2023-08-12T09:08:58;95565.03;;;25.99;49.99
47636;BME280;33364;50.766;15.338;2023-08-12T09:11:26;95560.34;;;25.36;48.69
47636;BME280;33364;50.766;15.338;2023-08-12T09:13:52;95558.63;;;25.24;49.96
47636;BME280;33364;50.766;15.338;2023-08-12T09:16:18;95564.78;;;25.78;52.82
47636;BME280;33364;50.766;15.338;2023-08-12T09:18:44;95561.31;;;26.11;48.20
47636;BME280;33364;50.766;15.338;2023-08-12T09:21:10;95551.22;;;26.41;46.35
47636;BME280;33364;50.766;15.338;2023-08-12T09:23:40;95554.09;;;26.59;45.88
47636;BME280;33364;50.766;15.338;2023-08-12T09:26:32;95549.16;;;26.71;46.32
47636;BME280;33364;50.766;15.338;2023-08-12T09:28:59;95554.91;;;26.63;43.26
47636;BME280;33364;50.766;15.338;2023-08-12T09:31:28;95551.44;;;27.06;45.05
47636;BME280;33364;50.766;15.338;2023-08-12T09:34:14;95547.00;;;27.39;45.62
47636;BME280;33364;50.766;15.338;2023-08-12T09:36:40;95566.06;;;26.95;42.54
47636;BME280;33364;50.766;15.338;2023-08-12T09:39:07;95560.09;;;27.29;41.78
47636;BME280;33364;50.766;15.338;2023-08-12T09:41:34;95566.16;;;27.09;42.61
47636;BME280;33364;50.766;15.338;2023-08-12T09:44:01;95551.09;;;27.18;40.43
47636;BME280;33364;50.766;15.338;2023-08-12T09:46:28;95564.09;;;26.55;43.32
47636;BME280;33364;50.766;15.338;2023-08-12T09:48:54;95560.13;;;26.41;43.17
47636;BME280;33364;50.766;15.338;2023-08-12T09:51:20;95552.34;;;26.36;44.19
47636;BME280;33364;50.766;15.338;2023-08-12T09:53:49;95556.09;;;26.28;45.81
47636;BME280;33364;50.766;15.338;2023-08-12T09:56:18;95547.22;;;26.68;44.14
47636;BME280;33364;50.766;15.338;2023-08-12T09:58:47;95551.16;;;26.78;44.08
47636;BME280;33364;50.766;15.338;2023-08-12T10:01:18;95543.59;;;26.98;42.52
47636;BME280;33364;50.766;15.338;2023-08-12T10:03:49;95547.31;;;27.26;42.41
47636;BME280;33364;50.766;15.338;2023-08-12T10:06:17;95538.94;;;27.49;42.78
47636;BME280;33364;50.766;15.338;2023-08-12T10:08:46;95546.88;;;27.21;43.70
47636;BME280;33364;50.766;15.338;2023-08-12T10:11:12;95539.22;;;27.34;41.51
47636;BME280;33364;50.766;15.338;2023-08-12T10:13:42;95538.72;;;27.79;45.83
47636;BME280;33364;50.766;15.338;2023-08-12T10:16:09;95536.53;;;28.17;42.75
47636;BME280;33364;50.766;15.338;2023-08-12T10:18:36;95533.44;;;28.18;42.17
47636;BME280;33364;50.766;15.338;2023-08-12T10:21:02;95522.50;;;27.97;41.32
47636;BME280;33364;50.766;15.338;2023-08-12T10:23:28;95514.78;;;28.13;42.03
47636;BME280;33364;50.766;15.338;2023-08-12T10:25:57;95523.38;;;28.36;41.62
47636;BME280;33364;50.766;15.338;2023-08-12T10:28:23;95517.94;;;28.29;42.22
47636;BME280;33364;50.766;15.338;2023-08-12T10:30:49;95520.66;;;28.36;41.25
47636;BME280;33364;50.766;15.338;2023-08-12T10:33:15;95516.44;;;28.56;41.27
47636;BME280;33364;50.766;15.338;2023-08-12T10:35:48;95514.47;;;28.61;41.67
47636;BME280;33364;50.766;15.338;2023-08-12T10:38:17;95521.88;;;28.60;41.31
47636;BME280;33364;50.766;15.338;2023-08-12T10:40:43;95519.53;;;28.48;39.67
47636;BME280;33364;50.766;15.338;2023-08-12T10:43:11;95513.31;;;28.58;41.16
47636;BME280;33364;50.766;15.338;2023-08-12T10:45:47;95513.38;;;28.86;39.40
47636;BME280;33364;50.766;15.338;2023-08-12T10:48:23;95520.75;;;28.86;39.75
47636;BME280;33364;50.766;15.338;2023-08-12T10:50:52;95515.69;;;28.88;38.77
47636;BME280;33364;50.766;15.338;2023-08-12T10:53:22;95517.63;;;28.94;37.96
47636;BME280;33364;50.766;15.338;2023-08-12T10:55:57;95516.03;;;28.33;38.08
47636;BME280;33364;50.766;15.338;2023-08-12T10:58:28;95517.97;;;28.72;39.69
47636;BME280;33364;50.766;15.338;2023-08-12T11:00:56;95519.19;;;28.99;40.77
47636;BME280;33364;50.766;15.338;2023-08-12T11:03:23;95509.47;;;29.05;39.63
47636;BME280;33364;50.766;15.338;2023-08-12T11:05:49;95495.81;;;29.30;40.48
47636;BME280;33364;50.766;15.338;2023-08-12T11:08:16;95497.00;;;29.29;39.20
47636;BME280;33364;50.766;15.338;2023-08-12T11:10:42;95496.53;;;29.59;39.16
47636;BME280;33364;50.766;15.338;2023-08-12T11:13:09;95497.72;;;29.51;39.15
47636;BME280;33364;50.766;15.338;2023-08-12T11:15:37;95497.72;;;29.58;40.80
47636;BME280;33364;50.766;15.338;2023-08-12T11:18:07;95495.09;;;28.94;38.00
47636;BME280;33364;50.766;15.338;2023-08-12T11:20:34;95500.53;;;29.12;37.69
47636;BME280;33364;50.766;15.338;2023-08-12T11:23:01;95500.16;;;28.78;37.03
47636;BME280;33364;50.766;15.338;2023-08-12T11:25:28;95488.13;;;28.86;38.79
47636;BME280;33364;50.766;15.338;2023-08-12T11:27:55;95493.91;;;28.67;37.04
47636;BME280;33364;50.766;15.338;2023-08-12T11:30:22;95497.06;;;28.97;37.12
47636;BME280;33364;50.766;15.338;2023-08-12T11:32:52;95492.38;;;28.69;37.19
47636;BME280;33364;50.766;15.338;2023-08-12T11:35:19;95487.72;;;29.02;38.13
47636;BME280;33364;50.766;15.338;2023-08-12T11:37:47;95483.44;;;28.72;37.28
47636;BME280;33364;50.766;15.338;2023-08-12T11:40:16;95484.63;;;28.85;36.71
47636;BME280;33364;50.766;15.338;2023-08-12T11:42:44;95470.22;;;29.06;36.31
47636;BME280;33364;50.766;15.338;2023-08-12T11:45:12;95472.53;;;29.11;35.52
47636;BME280;33364;50.766;15.338;2023-08-12T11:47:39;95479.97;;;28.86;37.06
47636;BME280;33364;50.766;15.338;2023-08-12T11:50:07;95472.78;;;29.66;37.68
47636;BME280;33364;50.766;15.338;2023-08-12T11:52:34;95469.81;;;29.32;35.78
47636;BME280;33364;50.766;15.338;2023-08-12T11:55:00;95462.84;;;28.92;35.90
47636;BME280;33364;50.766;15.338;2023-08-12T11:57:27;95469.81;;;28.19;37.89
47636;BME280;33364;50.766;15.338;2023-08-12T12:00:00;95472.44;;;27.91;37.53
47636;BME280;33364;50.766;15.338;2023-08-12T12:02:26;95463.53;;;28.01;37.04
47636;BME280;33364;50.766;15.338;2023-08-12T12:04:52;95459.28;;;27.96;38.70
47636;BME280;33364;50.766;15.338;2023-08-12T12:07:24;95446.13;;;28.16;37.47
47636;BME280;33364;50.766;15.338;2023-08-12T12:09:51;95451.97;;;28.82;35.89
47636;BME280;33364;50.766;15.338;2023-08-12T12:12:21;95448.88;;;28.83;36.24
47636;BME280;33364;50.766;15.338;2023-08-12T12:14:47;95446.19;;;28.80;37.75
47636;BME280;33364;50.766;15.338;2023-08-12T12:17:14;95440.34;;;28.60;37.02
47636;BME280;33364;50.766;15.338;2023-08-12T12:19:40;95438.38;;;28.68;35.96
47636;BME280;33364;50.766;15.338;2023-08-12T12:22:06;95443.44;;;29.01;36.31
47636;BME280;33364;50.766;15.338;2023-08-12T12:24:44;95447.72;;;28.88;35.82
47636;BME280;33364;50.766;15.338;2023-08-12T12:27:13;95439.13;;;29.18;34.61
47636;BME280;33364;50.766;15.338;2023-08-12T12:29:39;95436.47;;;28.65;36.31
47636;BME280;33364;50.766;15.338;2023-08-12T12:32:05;95436.06;;;28.70;37.48
47636;BME280;33364;50.766;15.338;2023-08-12T12:34:31;95432.97;;;28.85;35.74
47636;BME280;33364;50.766;15.338;2023-08-12T12:36:56;95423.53;;;29.29;35.87
47636;BME280;33364;50.766;15.338;2023-08-12T12:39:22;95424.00;;;29.06;35.20
47636;BME280;33364;50.766;15.338;2023-08-12T12:41:49;95426.31;;;29.11;35.25
47636;BME280;33364;50.766;15.338;2023-08-12T12:44:15;95432.19;;;28.42;35.55
47636;BME280;33364;50.766;15.338;2023-08-12T12:46:40;95424.81;;;28.53;35.14
47636;BME280;33364;50.766;15.338;2023-08-12T12:49:06;95418.59;;;28.78;36.07